createdAt,value
2024-05-09T00:01:12.012Z,9.20
2024-05-09T00:04:13.981Z,9.90
2024-05-09T00:07:14.973Z,10.70
2024-05-09T00:10:25.103Z,8.90
2024-05-09T00:13:29.972Z,8.00
2024-05-09T00:16:30.999Z,9.20
2024-05-09T00:19:32.262Z,9.10
2024-05-09T00:22:33.008Z,8.90
2024-05-09T00:25:34.052Z,10.20
2024-05-09T00:28:28.053Z,8.80
2024-05-09T00:31:09.119Z,9.60
2024-05-09T00:33:56.236Z,8.50
2024-05-09T00:36:44.048Z,8.90
2024-05-09T00:39:45.019Z,8.70
2024-05-09T00:42:51.058Z,8.40
2024-05-09T00:45:52.051Z,8.60
2024-05-09T00:48:54.151Z,7.70
2024-05-09T00:51:56.091Z,8.10
2024-05-09T00:54:57.076Z,9.20
2024-05-09T00:57:58.088Z,8.80
2024-05-09T01:00:59.107Z,10.10
2024-05-09T01:04:00.183Z,8.90
2024-05-09T01:07:01.133Z,9.40
2024-05-09T01:10:04.173Z,9.80
2024-05-09T01:13:06.493Z,9.90
2024-05-09T01:16:07.106Z,8.70
2024-05-09T01:19:08.232Z,9.60
2024-05-09T01:22:11.166Z,8.60
2024-05-09T01:25:12.120Z,9.70
2024-05-09T01:28:13.173Z,10.00
2024-05-09T01:31:14.113Z,11.30
2024-05-09T01:34:15.227Z,10.00
2024-05-09T01:37:16.163Z,10.20
2024-05-09T01:40:22.020Z,10.50
2024-05-09T01:43:26.178Z,11.20
2024-05-09T01:46:27.160Z,10.20
2024-05-09T01:49:28.296Z,12.70
2024-05-09T01:52:29.189Z,10.80
2024-05-09T01:55:30.175Z,11.80
2024-05-09T01:58:31.168Z,10.90
2024-05-09T02:01:55.603Z,11.30
2024-05-09T02:04:57.283Z,11.90
2024-05-09T02:07:58.279Z,14.10
2024-05-09T02:11:00.407Z,15.70
2024-05-09T02:14:01.342Z,11.50
2024-05-09T02:16:55.247Z,13.50
2024-05-09T02:19:56.271Z,15.20
2024-05-09T02:22:57.316Z,12.00
2024-05-09T02:25:58.317Z,19.10
2024-05-09T02:28:59.310Z,14.80
2024-05-09T02:32:00.444Z,23.90
2024-05-09T02:35:01.308Z,40.10
2024-05-09T02:38:02.366Z,55.90
2024-05-09T02:41:03.314Z,45.70
2024-05-09T02:44:04.315Z,42.00
2024-05-09T02:47:05.480Z,43.70
2024-05-09T02:50:08.080Z,36.40
2024-05-09T02:53:10.038Z,28.70
2024-05-09T02:56:11.356Z,25.00
2024-05-09T02:59:12.394Z,30.30
2024-05-09T03:02:13.423Z,36.00
2024-05-09T03:05:14.356Z,37.40
2024-05-09T03:08:15.463Z,33.30
2024-05-09T03:11:16.420Z,30.70
2024-05-09T03:14:17.353Z,31.80
2024-05-09T03:17:18.472Z,41.10
2024-05-09T03:20:24.061Z,39.10
2024-05-09T03:23:21.396Z,38.40
2024-05-09T03:26:09.411Z,38.40
2024-05-09T03:29:10.427Z,27.20
2024-05-09T03:32:13.466Z,24.60
2024-05-09T03:35:14.430Z,18.10
2024-05-09T03:38:15.705Z,21.00
2024-05-09T03:41:16.463Z,15.60
2024-05-09T03:44:21.468Z,11.70
2024-05-09T03:47:22.631Z,10.70
2024-05-09T03:50:22.748Z,10.90
2024-05-09T03:53:30.460Z,10.80
2024-05-09T03:56:31.519Z,10.00
2024-05-09T03:59:32.539Z,10.60
2024-05-09T04:02:33.555Z,10.80
2024-05-09T04:05:34.972Z,10.30
2024-05-09T04:08:35.572Z,10.70
2024-05-09T04:11:36.558Z,9.40
2024-05-09T04:14:37.530Z,9.70
2024-05-09T04:17:38.630Z,9.40
2024-05-09T04:20:41.059Z,9.70
2024-05-09T04:23:42.533Z,9.90
2024-05-09T04:26:43.582Z,9.00
2024-05-09T04:29:44.513Z,12.20
2024-05-09T04:32:45.647Z,18.10
2024-05-09T04:35:48.515Z,10.90
2024-05-09T04:38:49.538Z,12.50
2024-05-09T04:41:50.559Z,12.40
2024-05-09T04:44:52.496Z,13.00
2024-05-09T04:47:54.815Z,9.50
2024-05-09T04:50:55.610Z,11.40
2024-05-09T04:53:56.546Z,10.30
2024-05-09T04:56:57.579Z,12.10
2024-05-09T04:59:58.588Z,11.10
2024-05-09T05:02:59.859Z,11.70
2024-05-09T05:06:00.632Z,11.70
2024-05-09T05:09:01.599Z,11.30
2024-05-09T05:12:02.740Z,11.30
2024-05-09T05:15:03.624Z,12.00
2024-05-09T05:18:04.933Z,10.80
2024-05-09T05:21:05.833Z,11.90
2024-05-09T05:24:06.606Z,11.70
2024-05-09T05:27:07.642Z,11.50
2024-05-09T05:30:14.715Z,12.50
2024-05-09T05:33:20.101Z,10.70
2024-05-09T05:36:21.639Z,6.80
2024-05-09T05:39:22.662Z,3.80
2024-05-09T05:42:24.672Z,3.90
2024-05-09T05:45:25.681Z,3.80
2024-05-09T05:48:27.837Z,3.60
2024-05-09T05:51:28.658Z,3.80
2024-05-09T05:54:29.711Z,3.40
2024-05-09T05:57:30.679Z,3.00
2024-05-09T06:00:38.343Z,2.80
2024-05-09T06:03:40.923Z,8.70
2024-05-09T06:06:41.743Z,3.00
2024-05-09T06:09:43.435Z,3.50
2024-05-09T06:12:44.766Z,2.70
2024-05-09T06:15:45.762Z,2.60
2024-05-09T06:18:47.023Z,3.10
2024-05-09T06:21:48.719Z,3.50
2024-05-09T06:24:49.762Z,3.40
2024-05-09T06:27:50.776Z,4.30
2024-05-09T06:30:51.766Z,3.20
2024-05-09T06:33:53.977Z,3.30
2024-05-09T06:36:54.753Z,3.30
2024-05-09T06:39:55.783Z,4.80
2024-05-09T06:42:56.780Z,4.20
2024-05-09T06:45:58.852Z,3.80
2024-05-09T06:48:59.978Z,3.10
2024-05-09T06:52:00.844Z,3.20
2024-05-09T06:55:01.842Z,3.30
2024-05-09T06:58:02.889Z,2.80
2024-05-09T07:01:03.888Z,2.40
2024-05-09T07:04:05.110Z,2.40
2024-05-09T07:07:06.934Z,1.80
2024-05-09T07:10:10.042Z,2.20
2024-05-09T07:13:13.227Z,2.50
2024-05-09T07:16:13.890Z,2.60
2024-05-09T07:19:15.148Z,2.20
2024-05-09T07:22:15.860Z,2.00
2024-05-09T07:25:17.343Z,2.60
2024-05-09T07:28:17.989Z,1.90
2024-05-09T07:31:19.046Z,1.80
2024-05-09T07:34:20.247Z,1.70
2024-05-09T07:37:20.935Z,1.90
2024-05-09T07:40:31.550Z,1.80
2024-05-09T07:43:35.919Z,1.70
2024-05-09T07:47:47.286Z,2.00
2024-05-09T07:51:47.587Z,1.90
2024-05-09T07:53:38.373Z,2.80
2024-05-09T07:56:40.163Z,2.00
2024-05-09T07:59:40.959Z,2.20
2024-05-09T08:02:41.983Z,2.10
2024-05-09T08:05:45.054Z,2.00
2024-05-09T08:08:45.976Z,2.60
2024-05-09T08:11:48.028Z,110.50
2024-05-09T08:14:48.983Z,3.00
2024-05-09T08:17:50.176Z,2.60
2024-05-09T08:20:55.036Z,2.50
2024-05-09T08:23:56.061Z,2.40
2024-05-09T13:02:51.869Z,3.10
2024-05-09T13:08:54.824Z,2.60
2024-05-09T13:11:55.842Z,1.60
2024-05-09T13:14:57.724Z,1.80
2024-05-09T13:18:02.015Z,2.40
2024-05-09T13:21:03.680Z,1.80
2024-05-09T13:23:59.257Z,2.10
2024-05-09T13:27:00.709Z,2.40
2024-05-09T13:30:03.935Z,2.00
2024-05-09T13:33:07.327Z,1.90
2024-05-09T13:36:08.779Z,1.90
2024-05-09T13:39:10.766Z,3.10
2024-05-09T13:42:11.768Z,2.00
2024-05-09T13:45:12.923Z,2.70
2024-05-09T13:48:15.948Z,2.20
2024-05-09T13:51:16.843Z,1.80
2024-05-09T13:54:21.169Z,2.50
2024-05-09T13:57:24.789Z,2.20
2024-05-09T14:00:38.007Z,2.10
2024-05-09T14:03:45.906Z,1.70
2024-05-09T14:06:46.867Z,1.50
2024-05-09T14:09:47.862Z,2.70
2024-05-09T14:12:48.901Z,3.60
2024-05-09T14:15:49.935Z,2.40
2024-05-09T14:18:50.900Z,1.60
2024-05-09T14:21:51.868Z,2.40
2024-05-09T14:24:52.849Z,2.40
2024-05-09T14:27:54.085Z,1.60
2024-05-09T14:30:55.851Z,2.80
2024-05-09T14:33:57.192Z,1.80
2024-05-09T14:36:57.931Z,1.80
2024-05-09T14:39:58.905Z,1.70
2024-05-09T14:43:02.553Z,1.60
2024-05-09T14:45:57.008Z,1.80
2024-05-09T14:48:45.010Z,1.40
2024-05-09T14:51:46.930Z,1.70
2024-05-09T14:54:49.214Z,2.00
2024-05-09T14:57:52.981Z,1.70
2024-05-09T15:00:56.046Z,2.20
2024-05-09T15:03:57.126Z,1.30
2024-05-09T15:06:57.978Z,2.30
2024-05-09T15:09:58.952Z,1.70
2024-05-09T15:12:59.985Z,1.90
2024-05-09T15:16:00.992Z,2.10
2024-05-09T15:19:02.193Z,2.60
2024-05-09T15:22:02.990Z,4.40
2024-05-09T15:25:04.028Z,2.60
2024-05-09T15:28:05.207Z,1.50
2024-05-09T15:31:06.083Z,1.60
2024-05-09T15:34:07.087Z,2.30
2024-05-09T15:37:08.022Z,1.80
2024-05-09T15:40:15.387Z,1.80
2024-05-09T15:43:23.020Z,1.50
2024-05-09T15:46:25.096Z,1.30
2024-05-09T15:49:27.210Z,1.60
2024-05-09T15:52:31.013Z,1.40
2024-05-09T15:55:32.019Z,4.20
2024-05-09T15:58:33.032Z,2.10
2024-05-09T16:01:35.147Z,3.90
2024-05-09T16:04:36.280Z,2.20
2024-05-09T16:07:37.100Z,1.60
2024-05-09T16:10:39.250Z,2.40
2024-05-09T16:18:39.167Z,2.00
2024-05-09T16:21:40.153Z,1.70
2024-05-09T16:24:41.219Z,2.20
2024-05-09T16:27:42.248Z,1.60
2024-05-09T16:30:43.204Z,2.10
2024-05-09T16:33:44.414Z,1.50
2024-05-09T16:36:46.246Z,2.20
2024-05-09T16:39:47.187Z,2.40
2024-05-09T16:42:48.180Z,2.20
2024-05-09T16:45:52.184Z,4.30
2024-05-09T16:48:53.287Z,4.80
2024-05-09T16:51:54.185Z,4.00
2024-05-09T16:54:55.298Z,3.50
2024-05-09T16:57:56.311Z,3.10
2024-05-09T17:00:57.305Z,2.20
2024-05-09T17:03:58.771Z,2.70
2024-05-09T17:07:00.213Z,2.90
2024-05-09T17:10:02.411Z,2.50
2024-05-09T17:13:05.447Z,1.90
2024-05-09T17:16:07.264Z,2.30
2024-05-09T17:19:08.311Z,2.70
2024-05-09T17:22:09.474Z,2.80
2024-05-09T17:25:10.308Z,2.90
2024-05-09T17:28:13.479Z,3.00
2024-05-09T17:31:15.292Z,2.60
2024-05-09T17:34:16.394Z,3.00
2024-05-09T17:37:17.282Z,3.10
2024-05-09T17:40:27.123Z,3.20
2024-05-09T17:43:32.386Z,3.80
2024-05-09T17:46:33.340Z,3.40
2024-05-09T17:49:35.385Z,3.90
2024-05-09T17:52:36.308Z,4.50
2024-05-09T17:55:37.402Z,9.20
2024-05-09T17:58:40.323Z,9.00
2024-05-09T18:01:41.406Z,11.60
2024-05-09T18:04:42.485Z,6.10
2024-05-09T18:07:43.323Z,6.80
2024-05-09T18:10:44.631Z,4.80
2024-05-09T18:13:46.321Z,5.80
2024-05-09T18:16:47.326Z,4.10
2024-05-09T18:19:49.427Z,3.90
2024-05-09T18:22:50.366Z,3.70
2024-05-09T18:25:53.348Z,5.10
2024-05-09T18:28:55.396Z,5.40
2024-05-09T18:31:56.379Z,5.70
2024-05-09T18:34:57.432Z,5.30
2024-05-09T18:37:58.389Z,5.90
2024-05-09T18:40:59.485Z,6.40
2024-05-09T18:44:03.830Z,5.40
2024-05-09T18:47:04.374Z,6.30
2024-05-09T18:50:09.211Z,3.60
2024-05-09T18:53:16.864Z,3.00
2024-05-09T18:56:20.440Z,2.80
2024-05-09T18:59:21.746Z,4.20
2024-05-09T19:02:22.637Z,4.30
2024-05-09T19:05:26.043Z,3.60
2024-05-09T19:08:26.433Z,3.50
2024-05-09T19:11:27.528Z,4.60
2024-05-09T19:14:28.455Z,6.30
2024-05-09T19:17:29.543Z,5.20
2024-05-09T19:20:34.496Z,4.10
2024-05-09T19:23:44.309Z,4.60
2024-05-09T19:26:51.483Z,5.20
2024-05-09T19:29:54.703Z,4.40
2024-05-09T19:32:56.564Z,4.80
2024-05-09T19:35:57.516Z,3.60
2024-05-09T19:38:58.522Z,3.90
2024-05-09T19:41:59.515Z,4.70
2024-05-09T19:45:00.536Z,5.20
2024-05-09T19:48:01.828Z,7.80
2024-05-09T19:51:02.560Z,10.30
2024-05-09T19:54:03.533Z,10.90
2024-05-09T19:57:04.545Z,12.10
2024-05-09T20:00:06.096Z,13.20
2024-05-09T20:03:06.903Z,14.60
2024-05-09T20:06:07.581Z,12.80
2024-05-09T20:09:08.605Z,13.70
2024-05-09T20:12:09.582Z,14.50
2024-05-09T20:15:10.618Z,17.70
2024-05-09T20:18:11.856Z,17.40
2024-05-09T20:21:13.679Z,16.90
2024-05-09T20:24:07.703Z,17.60
2024-05-09T20:27:08.627Z,20.50
2024-05-09T20:30:12.278Z,20.60
2024-05-09T20:33:16.625Z,19.20
2024-05-09T20:36:18.623Z,20.60
2024-05-09T20:39:19.608Z,21.00
2024-05-09T20:42:20.916Z,18.10
2024-05-09T20:45:21.644Z,18.40
2024-05-09T20:48:22.824Z,21.00
2024-05-09T20:51:23.686Z,20.00
2024-05-09T20:54:25.671Z,20.60
2024-05-09T20:57:26.687Z,20.50
2024-05-09T21:00:26.182Z,21.40
2024-05-09T21:03:36.836Z,20.70
2024-05-09T21:06:37.796Z,20.50
2024-05-09T21:09:38.757Z,21.80
2024-05-09T21:12:39.753Z,21.40
2024-05-09T21:15:40.814Z,20.10
2024-05-09T21:18:41.776Z,19.80
2024-05-09T21:21:42.759Z,19.30
2024-05-09T21:24:43.837Z,19.80
2024-05-09T21:27:44.810Z,20.30
2024-05-09T21:30:45.780Z,21.40
2024-05-09T21:33:46.959Z,21.60
2024-05-09T21:36:47.968Z,21.30
2024-05-09T21:39:48.812Z,23.20
2024-05-09T21:42:49.866Z,21.90
2024-05-09T21:45:50.870Z,20.90
2024-05-09T21:48:51.873Z,21.40
2024-05-09T21:51:52.930Z,22.40
2024-05-09T21:54:53.815Z,24.80
2024-05-09T21:57:54.775Z,24.60
2024-05-09T22:00:55.879Z,24.90
2024-05-09T22:03:56.978Z,26.30
2024-05-09T22:06:57.839Z,26.30
2024-05-09T22:09:58.854Z,25.30
2024-05-09T22:12:59.919Z,26.80
2024-05-09T22:15:53.865Z,28.60
2024-05-09T22:18:40.934Z,29.70
2024-05-09T22:21:41.895Z,27.90
2024-05-09T22:24:42.907Z,27.90
2024-05-09T22:27:43.886Z,26.30
2024-05-09T22:30:44.902Z,26.70
2024-05-09T22:33:48.149Z,25.80
2024-05-09T22:36:48.950Z,23.10
2024-05-09T22:39:49.917Z,21.50
2024-05-09T22:42:44.014Z,21.30
2024-05-09T22:45:44.975Z,19.90
2024-05-09T22:48:46.038Z,20.70
2024-05-09T22:51:46.942Z,18.20
2024-05-09T22:54:47.928Z,19.10
2024-05-09T22:57:49.045Z,20.90
2024-05-09T23:00:50.088Z,19.90
2024-05-09T23:03:52.041Z,20.50
2024-05-09T23:06:56.007Z,20.60
2024-05-09T23:09:59.974Z,19.50
2024-05-09T23:13:01.058Z,19.00
2024-05-09T23:16:01.980Z,19.80
2024-05-09T23:19:03.121Z,19.70
2024-05-09T23:22:04.033Z,19.30
2024-05-09T23:25:05.077Z,19.70
2024-05-09T23:28:06.338Z,19.60
2024-05-09T23:31:07.027Z,18.50
2024-05-09T23:34:08.230Z,19.40
2024-05-09T23:37:09.092Z,19.00
2024-05-09T23:40:10.146Z,17.00
2024-05-09T23:43:13.373Z,18.70
2024-05-09T23:46:14.069Z,20.30
2024-05-09T23:49:15.095Z,20.60
2024-05-09T23:52:16.091Z,22.40
2024-05-09T23:55:17.200Z,22.70
2024-05-09T23:58:18.059Z,23.90
